sensor_id;sensor_type;location;lat;lon;timestamp;P1;durP1;ratioP1;P2;durP2;ratioP2
69789;SDS011;57064;52.046;4.800;2024-02-04T00:00:44;34.00;;;12.02;;
69789;SDS011;57064;52.046;4.800;2024-02-04T00:03:10;30.10;;;14.00;;
69789;SDS011;57064;52.046;4.800;2024-02-04T00:05:36;32.65;;;12.10;;
69789;SDS011;57064;52.046;4.800;2024-02-04T00:08:02;41.70;;;14.68;;
69789;SDS011;57064;52.046;4.800;2024-02-04T00:10:29;34.38;;;12.77;;
69789;SDS011;57064;52.046;4.800;2024-02-04T00:12:55;26.55;;;9.48;;
69789;SDS011;57064;52.046;4.800;2024-02-04T00:15:22;31.88;;;10.30;;
69789;SDS011;57064;52.046;4.800;2024-02-04T00:17:48;35.42;;;12.07;;
69789;SDS011;57064;52.046;4.800;2024-02-04T00:20:15;23.85;;;9.95;;
69789;SDS011;57064;52.046;4.800;2024-02-04T00:22:42;31.23;;;10.65;;
69789;SDS011;57064;52.046;4.800;2024-02-04T00:25:08;26.33;;;8.45;;
69789;SDS011;57064;52.046;4.800;2024-02-04T00:27:36;29.60;;;9.20;;
69789;SDS011;57064;52.046;4.800;2024-02-04T00:30:03;22.13;;;8.30;;
69789;SDS011;57064;52.046;4.800;2024-02-04T00:32:29;25.02;;;9.82;;
69789;SDS011;57064;52.046;4.800;2024-02-04T00:34:55;25.67;;;8.98;;
69789;SDS011;57064;52.046;4.800;2024-02-04T00:37:21;25.52;;;8.20;;
69789;SDS011;57064;52.046;4.800;2024-02-04T00:39:48;25.00;;;8.98;;
69789;SDS011;57064;52.046;4.800;2024-02-04T00:42:14;29.60;;;9.48;;
69789;SDS011;57064;52.046;4.800;2024-02-04T00:44:40;27.13;;;8.77;;
69789;SDS011;57064;52.046;4.800;2024-02-04T00:47:06;30.13;;;8.77;;
69789;SDS011;57064;52.046;4.800;2024-02-04T00:49:32;27.17;;;11.77;;
69789;SDS011;57064;52.046;4.800;2024-02-04T00:51:58;24.40;;;9.35;;
69789;SDS011;57064;52.046;4.800;2024-02-04T00:54:24;25.63;;;9.60;;
69789;SDS011;57064;52.046;4.800;2024-02-04T00:56:51;25.50;;;10.70;;
69789;SDS011;57064;52.046;4.800;2024-02-04T00:59:17;26.85;;;10.40;;
69789;SDS011;57064;52.046;4.800;2024-02-04T01:01:43;25.63;;;10.25;;
69789;SDS011;57064;52.046;4.800;2024-02-04T01:04:09;30.95;;;10.30;;
69789;SDS011;57064;52.046;4.800;2024-02-04T01:06:35;23.02;;;8.38;;
69789;SDS011;57064;52.046;4.800;2024-02-04T01:09:01;22.00;;;9.93;;
69789;SDS011;57064;52.046;4.800;2024-02-04T01:11:28;28.17;;;10.35;;
69789;SDS011;57064;52.046;4.800;2024-02-04T01:13:54;28.60;;;10.70;;
69789;SDS011;57064;52.046;4.800;2024-02-04T01:16:20;24.15;;;8.63;;
69789;SDS011;57064;52.046;4.800;2024-02-04T01:18:47;27.10;;;10.85;;
69789;SDS011;57064;52.046;4.800;2024-02-04T01:21:13;27.88;;;10.00;;
69789;SDS011;57064;52.046;4.800;2024-02-04T01:23:39;22.27;;;9.43;;
69789;SDS011;57064;52.046;4.800;2024-02-04T01:26:05;23.48;;;9.18;;
69789;SDS011;57064;52.046;4.800;2024-02-04T01:28:31;32.72;;;10.52;;
69789;SDS011;57064;52.046;4.800;2024-02-04T01:30:57;26.27;;;9.55;;
69789;SDS011;57064;52.046;4.800;2024-02-04T01:33:24;23.67;;;10.88;;
69789;SDS011;57064;52.046;4.800;2024-02-04T01:35:50;29.17;;;10.95;;
69789;SDS011;57064;52.046;4.800;2024-02-04T01:38:17;27.02;;;11.48;;
69789;SDS011;57064;52.046;4.800;2024-02-04T01:40:43;33.28;;;12.90;;
69789;SDS011;57064;52.046;4.800;2024-02-04T01:43:11;24.75;;;11.25;;
69789;SDS011;57064;52.046;4.800;2024-02-04T01:45:37;31.33;;;11.50;;
69789;SDS011;57064;52.046;4.800;2024-02-04T01:48:04;25.73;;;11.52;;
69789;SDS011;57064;52.046;4.800;2024-02-04T01:50:30;25.08;;;10.75;;
69789;SDS011;57064;52.046;4.800;2024-02-04T01:52:57;30.25;;;12.50;;
69789;SDS011;57064;52.046;4.800;2024-02-04T01:55:23;30.45;;;13.13;;
69789;SDS011;57064;52.046;4.800;2024-02-04T01:57:50;21.15;;;9.13;;
69789;SDS011;57064;52.046;4.800;2024-02-04T02:00:16;24.27;;;11.50;;
69789;SDS011;57064;52.046;4.800;2024-02-04T02:02:43;26.15;;;10.40;;
69789;SDS011;57064;52.046;4.800;2024-02-04T02:05:13;27.23;;;9.98;;
69789;SDS011;57064;52.046;4.800;2024-02-04T02:07:40;26.13;;;12.77;;
69789;SDS011;57064;52.046;4.800;2024-02-04T02:10:08;30.33;;;11.70;;
69789;SDS011;57064;52.046;4.800;2024-02-04T02:12:37;24.52;;;10.05;;
69789;SDS011;57064;52.046;4.800;2024-02-04T02:17:56;29.30;;;12.13;;
69789;SDS011;57064;52.046;4.800;2024-02-04T02:20:33;21.85;;;8.77;;
69789;SDS011;57064;52.046;4.800;2024-02-04T02:23:15;20.45;;;7.93;;
69789;SDS011;57064;52.046;4.800;2024-02-04T02:25:46;30.20;;;9.60;;
69789;SDS011;57064;52.046;4.800;2024-02-04T02:28:13;27.52;;;8.27;;
69789;SDS011;57064;52.046;4.800;2024-02-04T02:30:39;25.15;;;7.68;;
69789;SDS011;57064;52.046;4.800;2024-02-04T02:33:05;20.92;;;9.27;;
69789;SDS011;57064;52.046;4.800;2024-02-04T02:35:33;17.55;;;6.78;;
69789;SDS011;57064;52.046;4.800;2024-02-04T02:40:48;26.23;;;7.53;;
69789;SDS011;57064;52.046;4.800;2024-02-04T02:43:24;18.83;;;7.10;;
69789;SDS011;57064;52.046;4.800;2024-02-04T02:45:52;19.17;;;6.50;;
69789;SDS011;57064;52.046;4.800;2024-02-04T02:48:18;20.35;;;7.32;;
69789;SDS011;57064;52.046;4.800;2024-02-04T02:50:45;18.50;;;6.85;;
69789;SDS011;57064;52.046;4.800;2024-02-04T02:53:12;19.05;;;7.32;;
69789;SDS011;57064;52.046;4.800;2024-02-04T02:55:38;16.80;;;7.20;;
69789;SDS011;57064;52.046;4.800;2024-02-04T02:58:06;18.10;;;6.30;;
69789;SDS011;57064;52.046;4.800;2024-02-04T03:00:32;24.85;;;7.55;;
69789;SDS011;57064;52.046;4.800;2024-02-04T03:02:58;27.55;;;6.72;;
69789;SDS011;57064;52.046;4.800;2024-02-04T03:05:24;16.38;;;6.25;;
69789;SDS011;57064;52.046;4.800;2024-02-04T03:07:50;19.50;;;6.25;;
69789;SDS011;57064;52.046;4.800;2024-02-04T03:10:16;17.70;;;6.18;;
69789;SDS011;57064;52.046;4.800;2024-02-04T03:12:43;23.90;;;6.38;;
69789;SDS011;57064;52.046;4.800;2024-02-04T03:15:09;17.10;;;5.25;;
69789;SDS011;57064;52.046;4.800;2024-02-04T03:17:35;14.70;;;5.68;;
69789;SDS011;57064;52.046;4.800;2024-02-04T03:20:01;27.00;;;8.13;;
69789;SDS011;57064;52.046;4.800;2024-02-04T03:22:27;13.57;;;5.70;;
69789;SDS011;57064;52.046;4.800;2024-02-04T03:24:53;20.95;;;8.68;;
69789;SDS011;57064;52.046;4.800;2024-02-04T03:27:20;17.00;;;5.35;;
69789;SDS011;57064;52.046;4.800;2024-02-04T03:29:46;15.55;;;5.55;;
69789;SDS011;57064;52.046;4.800;2024-02-04T03:32:12;20.67;;;5.65;;
69789;SDS011;57064;52.046;4.800;2024-02-04T03:34:41;16.65;;;6.43;;
69789;SDS011;57064;52.046;4.800;2024-02-04T03:37:07;16.98;;;6.60;;
69789;SDS011;57064;52.046;4.800;2024-02-04T03:39:33;19.20;;;6.70;;
69789;SDS011;57064;52.046;4.800;2024-02-04T03:41:59;22.27;;;7.40;;
69789;SDS011;57064;52.046;4.800;2024-02-04T03:44:25;14.38;;;6.78;;
69789;SDS011;57064;52.046;4.800;2024-02-04T03:46:51;16.70;;;7.40;;
69789;SDS011;57064;52.046;4.800;2024-02-04T03:49:18;23.75;;;9.20;;
69789;SDS011;57064;52.046;4.800;2024-02-04T03:51:46;23.60;;;8.77;;
69789;SDS011;57064;52.046;4.800;2024-02-04T03:54:12;29.20;;;10.85;;
69789;SDS011;57064;52.046;4.800;2024-02-04T03:56:38;23.83;;;9.13;;
69789;SDS011;57064;52.046;4.800;2024-02-04T03:59:04;30.13;;;11.00;;
69789;SDS011;57064;52.046;4.800;2024-02-04T04:01:32;34.10;;;10.23;;
69789;SDS011;57064;52.046;4.800;2024-02-04T04:03:58;28.50;;;8.80;;
69789;SDS011;57064;52.046;4.800;2024-02-04T04:06:24;27.13;;;10.50;;
69789;SDS011;57064;52.046;4.800;2024-02-04T04:08:50;21.50;;;9.77;;
69789;SDS011;57064;52.046;4.800;2024-02-04T04:11:17;40.42;;;10.63;;
69789;SDS011;57064;52.046;4.800;2024-02-04T04:13:43;34.40;;;10.23;;
69789;SDS011;57064;52.046;4.800;2024-02-04T04:16:09;23.73;;;9.95;;
69789;SDS011;57064;52.046;4.800;2024-02-04T04:18:35;20.55;;;8.13;;
69789;SDS011;57064;52.046;4.800;2024-02-04T04:21:01;24.20;;;8.60;;
69789;SDS011;57064;52.046;4.800;2024-02-04T04:23:27;28.05;;;10.25;;
69789;SDS011;57064;52.046;4.800;2024-02-04T04:25:53;26.92;;;10.32;;
69789;SDS011;57064;52.046;4.800;2024-02-04T04:28:19;23.45;;;10.02;;
69789;SDS011;57064;52.046;4.800;2024-02-04T04:30:46;25.80;;;10.90;;
69789;SDS011;57064;52.046;4.800;2024-02-04T04:33:12;24.40;;;10.60;;
69789;SDS011;57064;52.046;4.800;2024-02-04T04:35:38;31.23;;;12.50;;
69789;SDS011;57064;52.046;4.800;2024-02-04T04:38:04;33.85;;;12.43;;
69789;SDS011;57064;52.046;4.800;2024-02-04T04:40:30;28.10;;;11.07;;
69789;SDS011;57064;52.046;4.800;2024-02-04T04:42:56;37.33;;;12.00;;
69789;SDS011;57064;52.046;4.800;2024-02-04T04:45:23;31.33;;;10.82;;
69789;SDS011;57064;52.046;4.800;2024-02-04T04:47:49;30.05;;;11.30;;
69789;SDS011;57064;52.046;4.800;2024-02-04T04:50:15;31.98;;;11.18;;
69789;SDS011;57064;52.046;4.800;2024-02-04T04:52:41;26.52;;;11.48;;
69789;SDS011;57064;52.046;4.800;2024-02-04T04:55:07;27.35;;;10.48;;
69789;SDS011;57064;52.046;4.800;2024-02-04T04:57:33;26.65;;;10.45;;
69789;SDS011;57064;52.046;4.800;2024-02-04T04:59:59;37.35;;;11.65;;
69789;SDS011;57064;52.046;4.800;2024-02-04T05:02:31;27.45;;;11.32;;
69789;SDS011;57064;52.046;4.800;2024-02-04T05:04:57;27.55;;;10.77;;
69789;SDS011;57064;52.046;4.800;2024-02-04T05:07:24;34.95;;;12.88;;
69789;SDS011;57064;52.046;4.800;2024-02-04T05:09:50;34.60;;;14.38;;
69789;SDS011;57064;52.046;4.800;2024-02-04T05:12:17;43.08;;;14.82;;
69789;SDS011;57064;52.046;4.800;2024-02-04T05:14:43;36.53;;;16.88;;
69789;SDS011;57064;52.046;4.800;2024-02-04T05:17:09;38.65;;;14.88;;
69789;SDS011;57064;52.046;4.800;2024-02-04T05:19:35;44.50;;;14.85;;
69789;SDS011;57064;52.046;4.800;2024-02-04T05:22:02;44.72;;;17.15;;
69789;SDS011;57064;52.046;4.800;2024-02-04T05:24:28;39.75;;;12.95;;
69789;SDS011;57064;52.046;4.800;2024-02-04T05:26:54;42.85;;;18.17;;
69789;SDS011;57064;52.046;4.800;2024-02-04T05:29:20;46.28;;;15.77;;
69789;SDS011;57064;52.046;4.800;2024-02-04T05:31:46;39.65;;;16.33;;
69789;SDS011;57064;52.046;4.800;2024-02-04T05:34:13;36.22;;;14.18;;
69789;SDS011;57064;52.046;4.800;2024-02-04T05:36:39;38.05;;;12.73;;
69789;SDS011;57064;52.046;4.800;2024-02-04T05:39:12;35.40;;;15.10;;
69789;SDS011;57064;52.046;4.800;2024-02-04T05:41:40;57.65;;;15.48;;
69789;SDS011;57064;52.046;4.800;2024-02-04T05:44:06;33.50;;;13.35;;
69789;SDS011;57064;52.046;4.800;2024-02-04T05:46:37;33.95;;;13.65;;
69789;SDS011;57064;52.046;4.800;2024-02-04T05:49:03;40.35;;;13.43;;
69789;SDS011;57064;52.046;4.800;2024-02-04T05:51:37;33.78;;;12.77;;
69789;SDS011;57064;52.046;4.800;2024-02-04T05:54:04;44.47;;;15.27;;
69789;SDS011;57064;52.046;4.800;2024-02-04T05:56:36;47.30;;;15.10;;
69789;SDS011;57064;52.046;4.800;2024-02-04T05:59:02;41.53;;;14.90;;
69789;SDS011;57064;52.046;4.800;2024-02-04T06:01:28;44.08;;;16.48;;
69789;SDS011;57064;52.046;4.800;2024-02-04T06:03:54;34.45;;;14.18;;
69789;SDS011;57064;52.046;4.800;2024-02-04T06:06:20;37.17;;;13.05;;
69789;SDS011;57064;52.046;4.800;2024-02-04T06:08:46;36.55;;;13.48;;
69789;SDS011;57064;52.046;4.800;2024-02-04T06:11:13;27.15;;;10.25;;
69789;SDS011;57064;52.046;4.800;2024-02-04T06:13:40;29.95;;;12.80;;
69789;SDS011;57064;52.046;4.800;2024-02-04T06:16:07;25.50;;;10.57;;
69789;SDS011;57064;52.046;4.800;2024-02-04T06:18:35;31.90;;;11.43;;
69789;SDS011;57064;52.046;4.800;2024-02-04T06:21:04;29.25;;;10.02;;
69789;SDS011;57064;52.046;4.800;2024-02-04T06:23:31;25.75;;;11.48;;
69789;SDS011;57064;52.046;4.800;2024-02-04T06:25:57;22.20;;;9.70;;
69789;SDS011;57064;52.046;4.800;2024-02-04T06:28:23;24.60;;;10.40;;
69789;SDS011;57064;52.046;4.800;2024-02-04T06:30:49;27.95;;;10.48;;
69789;SDS011;57064;52.046;4.800;2024-02-04T06:33:16;25.15;;;9.57;;
69789;SDS011;57064;52.046;4.800;2024-02-04T06:35:42;24.58;;;10.15;;
69789;SDS011;57064;52.046;4.800;2024-02-04T06:38:08;23.48;;;9.13;;
69789;SDS011;57064;52.046;4.800;2024-02-04T06:40:34;21.08;;;8.77;;
69789;SDS011;57064;52.046;4.800;2024-02-04T06:43:03;34.50;;;12.23;;
69789;SDS011;57064;52.046;4.800;2024-02-04T06:45:29;28.38;;;9.98;;
69789;SDS011;57064;52.046;4.800;2024-02-04T06:47:55;28.05;;;10.43;;
69789;SDS011;57064;52.046;4.800;2024-02-04T06:50:21;20.83;;;8.88;;
69789;SDS011;57064;52.046;4.800;2024-02-04T06:52:47;24.98;;;10.10;;
69789;SDS011;57064;52.046;4.800;2024-02-04T06:55:13;26.80;;;9.40;;
69789;SDS011;57064;52.046;4.800;2024-02-04T06:57:39;23.77;;;9.60;;
69789;SDS011;57064;52.046;4.800;2024-02-04T07:00:05;20.42;;;9.95;;
69789;SDS011;57064;52.046;4.800;2024-02-04T07:02:33;19.55;;;8.65;;
69789;SDS011;57064;52.046;4.800;2024-02-04T07:04:59;22.40;;;9.45;;
69789;SDS011;57064;52.046;4.800;2024-02-04T07:07:26;22.20;;;9.77;;
69789;SDS011;57064;52.046;4.800;2024-02-04T07:09:52;18.27;;;8.38;;
69789;SDS011;57064;52.046;4.800;2024-02-04T07:12:18;18.95;;;7.30;;
69789;SDS011;57064;52.046;4.800;2024-02-04T07:14:44;17.65;;;6.95;;
69789;SDS011;57064;52.046;4.800;2024-02-04T07:17:11;20.15;;;7.90;;
69789;SDS011;57064;52.046;4.800;2024-02-04T07:19:37;19.17;;;8.50;;
69789;SDS011;57064;52.046;4.800;2024-02-04T07:22:03;18.65;;;7.22;;
69789;SDS011;57064;52.046;4.800;2024-02-04T07:24:29;20.20;;;7.95;;
69789;SDS011;57064;52.046;4.800;2024-02-04T07:26:55;16.83;;;6.22;;
69789;SDS011;57064;52.046;4.800;2024-02-04T07:29:21;16.35;;;6.20;;
69789;SDS011;57064;52.046;4.800;2024-02-04T07:31:48;12.75;;;5.45;;
69789;SDS011;57064;52.046;4.800;2024-02-04T07:34:14;20.98;;;6.55;;
69789;SDS011;57064;52.046;4.800;2024-02-04T07:36:40;16.60;;;6.80;;
69789;SDS011;57064;52.046;4.800;2024-02-04T07:39:06;13.93;;;6.22;;
69789;SDS011;57064;52.046;4.800;2024-02-04T07:41:32;17.25;;;6.93;;
69789;SDS011;57064;52.046;4.800;2024-02-04T07:43:58;16.27;;;8.65;;
69789;SDS011;57064;52.046;4.800;2024-02-04T07:46:24;20.50;;;10.43;;
69789;SDS011;57064;52.046;4.800;2024-02-04T07:48:50;19.00;;;9.40;;
69789;SDS011;57064;52.046;4.800;2024-02-04T07:51:16;20.05;;;10.63;;
69789;SDS011;57064;52.046;4.800;2024-02-04T07:53:42;31.92;;;10.63;;
69789;SDS011;57064;52.046;4.800;2024-02-04T07:56:09;20.98;;;10.25;;
69789;SDS011;57064;52.046;4.800;2024-02-04T07:58:35;24.33;;;9.20;;
69789;SDS011;57064;52.046;4.800;2024-02-04T08:01:02;18.20;;;7.53;;
69789;SDS011;57064;52.046;4.800;2024-02-04T08:03:28;16.23;;;6.95;;
69789;SDS011;57064;52.046;4.800;2024-02-04T08:05:54;15.23;;;7.18;;
69789;SDS011;57064;52.046;4.800;2024-02-04T08:08:20;21.75;;;6.72;;
69789;SDS011;57064;52.046;4.800;2024-02-04T08:10:46;16.23;;;5.50;;
69789;SDS011;57064;52.046;4.800;2024-02-04T08:13:12;21.98;;;5.75;;
69789;SDS011;57064;52.046;4.800;2024-02-04T08:15:39;11.35;;;5.18;;
69789;SDS011;57064;52.046;4.800;2024-02-04T08:18:05;17.15;;;6.45;;
69789;SDS011;57064;52.046;4.800;2024-02-04T08:20:31;8.43;;;5.07;;
69789;SDS011;57064;52.046;4.800;2024-02-04T08:22:57;17.20;;;7.15;;
69789;SDS011;57064;52.046;4.800;2024-02-04T08:25:23;12.32;;;5.43;;
69789;SDS011;57064;52.046;4.800;2024-02-04T08:27:49;18.55;;;6.80;;
69789;SDS011;57064;52.046;4.800;2024-02-04T08:30:15;19.52;;;5.40;;
69789;SDS011;57064;52.046;4.800;2024-02-04T08:32:44;8.90;;;4.30;;
69789;SDS011;57064;52.046;4.800;2024-02-04T08:35:10;14.07;;;5.00;;
69789;SDS011;57064;52.046;4.800;2024-02-04T08:37:36;10.27;;;3.90;;
69789;SDS011;57064;52.046;4.800;2024-02-04T08:40:03;14.65;;;4.68;;
69789;SDS011;57064;52.046;4.800;2024-02-04T08:42:32;8.95;;;4.45;;
69789;SDS011;57064;52.046;4.800;2024-02-04T08:45:01;11.50;;;3.33;;
69789;SDS011;57064;52.046;4.800;2024-02-04T08:47:28;7.28;;;3.05;;
69789;SDS011;57064;52.046;4.800;2024-02-04T08:49:54;11.75;;;3.65;;
69789;SDS011;57064;52.046;4.800;2024-02-04T08:52:21;5.88;;;3.38;;
69789;SDS011;57064;52.046;4.800;2024-02-04T08:54:47;8.68;;;2.92;;
69789;SDS011;57064;52.046;4.800;2024-02-04T08:57:13;8.77;;;4.07;;
69789;SDS011;57064;52.046;4.800;2024-02-04T08:59:39;7.78;;;3.22;;
69789;SDS011;57064;52.046;4.800;2024-02-04T09:02:06;11.95;;;3.97;;
69789;SDS011;57064;52.046;4.800;2024-02-04T09:04:32;7.40;;;2.40;;
69789;SDS011;57064;52.046;4.800;2024-02-04T09:07:05;9.77;;;2.78;;
69789;SDS011;57064;52.046;4.800;2024-02-04T09:09:34;7.45;;;2.60;;
69789;SDS011;57064;52.046;4.800;2024-02-04T09:12:00;8.60;;;2.15;;
69789;SDS011;57064;52.046;4.800;2024-02-04T09:14:26;6.65;;;2.50;;
69789;SDS011;57064;52.046;4.800;2024-02-04T09:16:52;12.68;;;2.42;;
69789;SDS011;57064;52.046;4.800;2024-02-04T09:19:18;9.73;;;2.38;;
69789;SDS011;57064;52.046;4.800;2024-02-04T09:21:47;10.48;;;2.75;;
69789;SDS011;57064;52.046;4.800;2024-02-04T09:24:13;6.90;;;1.90;;
69789;SDS011;57064;52.046;4.800;2024-02-04T09:26:39;11.38;;;1.70;;
69789;SDS011;57064;52.046;4.800;2024-02-04T09:29:05;9.77;;;1.77;;
69789;SDS011;57064;52.046;4.800;2024-02-04T09:31:31;6.18;;;1.80;;
69789;SDS011;57064;52.046;4.800;2024-02-04T09:33:57;10.73;;;2.13;;
69789;SDS011;57064;52.046;4.800;2024-02-04T09:36:23;7.25;;;2.10;;
69789;SDS011;57064;52.046;4.800;2024-02-04T09:38:49;3.47;;;1.20;;
69789;SDS011;57064;52.046;4.800;2024-02-04T09:41:15;4.65;;;1.65;;
69789;SDS011;57064;52.046;4.800;2024-02-04T09:43:42;5.38;;;1.42;;
69789;SDS011;57064;52.046;4.800;2024-02-04T09:46:08;2.40;;;1.30;;
69789;SDS011;57064;52.046;4.800;2024-02-04T09:48:34;2.30;;;1.10;;
69789;SDS011;57064;52.046;4.800;2024-02-04T09:51:05;4.22;;;1.30;;
69789;SDS011;57064;52.046;4.800;2024-02-04T09:53:33;8.20;;;1.10;;
69789;SDS011;57064;52.046;4.800;2024-02-04T09:56:01;3.80;;;1.08;;
69789;SDS011;57064;52.046;4.800;2024-02-04T09:58:29;0.95;;;0.57;;
69789;SDS011;57064;52.046;4.800;2024-02-04T10:00:55;2.97;;;0.98;;
69789;SDS011;57064;52.046;4.800;2024-02-04T10:03:24;3.00;;;2.13;;
69789;SDS011;57064;52.046;4.800;2024-02-04T10:05:50;2.92;;;0.77;;
69789;SDS011;57064;52.046;4.800;2024-02-04T10:08:17;2.22;;;0.63;;
69789;SDS011;57064;52.046;4.800;2024-02-04T10:10:43;1.80;;;0.88;;
69789;SDS011;57064;52.046;4.800;2024-02-04T10:13:09;2.25;;;0.88;;
69789;SDS011;57064;52.046;4.800;2024-02-04T10:15:35;5.78;;;1.13;;
69789;SDS011;57064;52.046;4.800;2024-02-04T10:18:05;3.42;;;1.40;;
69789;SDS011;57064;52.046;4.800;2024-02-04T10:20:32;3.40;;;2.22;;
69789;SDS011;57064;52.046;4.800;2024-02-04T10:22:58;4.50;;;3.00;;
69789;SDS011;57064;52.046;4.800;2024-02-04T10:25:25;8.80;;;4.05;;
69789;SDS011;57064;52.046;4.800;2024-02-04T10:27:52;11.63;;;4.47;;
69789;SDS011;57064;52.046;4.800;2024-02-04T10:30:21;8.40;;;5.00;;
69789;SDS011;57064;52.046;4.800;2024-02-04T10:32:51;11.93;;;4.45;;
69789;SDS011;57064;52.046;4.800;2024-02-04T10:35:22;6.93;;;4.35;;
69789;SDS011;57064;52.046;4.800;2024-02-04T10:37:51;16.70;;;5.88;;
69789;SDS011;57064;52.046;4.800;2024-02-04T10:40:18;13.73;;;5.07;;
69789;SDS011;57064;52.046;4.800;2024-02-04T10:42:44;10.18;;;4.95;;
69789;SDS011;57064;52.046;4.800;2024-02-04T10:45:13;8.13;;;3.75;;
69789;SDS011;57064;52.046;4.800;2024-02-04T10:47:43;10.10;;;5.03;;
69789;SDS011;57064;52.046;4.800;2024-02-04T10:50:22;8.52;;;3.83;;
69789;SDS011;57064;52.046;4.800;2024-02-04T10:52:51;9.65;;;3.08;;
69789;SDS011;57064;52.046;4.800;2024-02-04T10:55:20;9.65;;;4.13;;
69789;SDS011;57064;52.046;4.800;2024-02-04T10:57:50;10.93;;;3.25;;
69789;SDS011;57064;52.046;4.800;2024-02-04T11:00:17;18.35;;;4.28;;
69789;SDS011;57064;52.046;4.800;2024-02-04T11:02:45;11.02;;;3.40;;
69789;SDS011;57064;52.046;4.800;2024-02-04T11:05:14;13.07;;;4.05;;
69789;SDS011;57064;52.046;4.800;2024-02-04T11:07:42;7.25;;;3.55;;
69789;SDS011;57064;52.046;4.800;2024-02-04T11:10:10;8.45;;;4.32;;
69789;SDS011;57064;52.046;4.800;2024-02-04T11:12:36;8.45;;;3.55;;
69789;SDS011;57064;52.046;4.800;2024-02-04T11:15:05;9.43;;;3.63;;
69789;SDS011;57064;52.046;4.800;2024-02-04T11:25:41;8.98;;;2.65;;
69789;SDS011;57064;52.046;4.800;2024-02-04T11:28:18;8.02;;;2.03;;
69789;SDS011;57064;52.046;4.800;2024-02-04T11:30:46;11.00;;;3.47;;
69789;SDS011;57064;52.046;4.800;2024-02-04T11:33:17;11.48;;;3.28;;
69789;SDS011;57064;52.046;4.800;2024-02-04T11:35:44;11.68;;;2.05;;
69789;SDS011;57064;52.046;4.800;2024-02-04T11:38:10;6.22;;;3.00;;
69789;SDS011;57064;52.046;4.800;2024-02-04T11:40:38;5.18;;;2.35;;
69789;SDS011;57064;52.046;4.800;2024-02-04T11:43:05;7.78;;;2.00;;
69789;SDS011;57064;52.046;4.800;2024-02-04T11:45:32;8.68;;;2.45;;
69789;SDS011;57064;52.046;4.800;2024-02-04T11:48:03;9.20;;;2.17;;
69789;SDS011;57064;52.046;4.800;2024-02-04T11:50:31;14.70;;;3.42;;
69789;SDS011;57064;52.046;4.800;2024-02-04T11:53:01;8.65;;;2.50;;
69789;SDS011;57064;52.046;4.800;2024-02-04T11:55:35;8.40;;;2.05;;
69789;SDS011;57064;52.046;4.800;2024-02-04T11:58:08;9.65;;;2.13;;
69789;SDS011;57064;52.046;4.800;2024-02-04T12:00:34;5.22;;;2.38;;
69789;SDS011;57064;52.046;4.800;2024-02-04T12:05:28;8.50;;;2.47;;
69789;SDS011;57064;52.046;4.800;2024-02-04T12:07:56;11.32;;;1.90;;
69789;SDS011;57064;52.046;4.800;2024-02-04T12:10:22;9.68;;;2.08;;
69789;SDS011;57064;52.046;4.800;2024-02-04T12:12:48;8.25;;;2.25;;
69789;SDS011;57064;52.046;4.800;2024-02-04T12:15:15;8.88;;;2.00;;
69789;SDS011;57064;52.046;4.800;2024-02-04T12:17:41;9.85;;;1.85;;
69789;SDS011;57064;52.046;4.800;2024-02-04T12:20:08;10.70;;;2.00;;
69789;SDS011;57064;52.046;4.800;2024-02-04T12:22:34;4.88;;;1.95;;
69789;SDS011;57064;52.046;4.800;2024-02-04T12:25:02;7.35;;;1.52;;
69789;SDS011;57064;52.046;4.800;2024-02-04T12:27:29;9.38;;;1.75;;
69789;SDS011;57064;52.046;4.800;2024-02-04T12:29:55;6.68;;;1.92;;
69789;SDS011;57064;52.046;4.800;2024-02-04T12:32:23;4.25;;;1.63;;
69789;SDS011;57064;52.046;4.800;2024-02-04T12:34:49;6.10;;;1.60;;
69789;SDS011;57064;52.046;4.800;2024-02-04T12:37:19;6.00;;;1.50;;
69789;SDS011;57064;52.046;4.800;2024-02-04T12:39:45;7.28;;;2.40;;
69789;SDS011;57064;52.046;4.800;2024-02-04T12:42:15;7.18;;;2.22;;
69789;SDS011;57064;52.046;4.800;2024-02-04T12:44:46;9.38;;;1.73;;
69789;SDS011;57064;52.046;4.800;2024-02-04T12:47:13;7.00;;;2.53;;
69789;SDS011;57064;52.046;4.800;2024-02-04T12:49:40;5.40;;;1.80;;
69789;SDS011;57064;52.046;4.800;2024-02-04T12:52:06;5.35;;;1.30;;
69789;SDS011;57064;52.046;4.800;2024-02-04T12:54:45;5.40;;;2.00;;
69789;SDS011;57064;52.046;4.800;2024-02-04T12:57:21;10.02;;;2.35;;
69789;SDS011;57064;52.046;4.800;2024-02-04T12:59:51;11.98;;;2.50;;
69789;SDS011;57064;52.046;4.800;2024-02-04T13:02:17;13.07;;;3.20;;
69789;SDS011;57064;52.046;4.800;2024-02-04T13:04:43;9.23;;;2.63;;
69789;SDS011;57064;52.046;4.800;2024-02-04T13:07:10;6.80;;;2.38;;
69789;SDS011;57064;52.046;4.800;2024-02-04T13:09:43;13.40;;;3.60;;
69789;SDS011;57064;52.046;4.800;2024-02-04T13:12:10;11.88;;;3.15;;
69789;SDS011;57064;52.046;4.800;2024-02-04T13:14:39;8.15;;;2.63;;
69789;SDS011;57064;52.046;4.800;2024-02-04T13:17:06;10.05;;;3.25;;
69789;SDS011;57064;52.046;4.800;2024-02-04T13:19:38;14.00;;;2.85;;
69789;SDS011;57064;52.046;4.800;2024-02-04T13:22:05;9.45;;;2.65;;
69789;SDS011;57064;52.046;4.800;2024-02-04T13:24:32;13.30;;;3.35;;
69789;SDS011;57064;52.046;4.800;2024-02-04T13:26:58;8.95;;;3.30;;
69789;SDS011;57064;52.046;4.800;2024-02-04T13:29:32;14.65;;;4.30;;
69789;SDS011;57064;52.046;4.800;2024-02-04T13:31:59;11.80;;;2.15;;
69789;SDS011;57064;52.046;4.800;2024-02-04T13:34:27;10.00;;;2.97;;
69789;SDS011;57064;52.046;4.800;2024-02-04T13:36:53;7.63;;;2.33;;
69789;SDS011;57064;52.046;4.800;2024-02-04T13:39:20;6.65;;;2.53;;
69789;SDS011;57064;52.046;4.800;2024-02-04T13:41:47;10.25;;;2.22;;
69789;SDS011;57064;52.046;4.800;2024-02-04T13:44:14;8.68;;;2.28;;
69789;SDS011;57064;52.046;4.800;2024-02-04T13:46:40;10.63;;;2.05;;
69789;SDS011;57064;52.046;4.800;2024-02-04T13:49:07;11.75;;;3.20;;
69789;SDS011;57064;52.046;4.800;2024-02-04T13:51:37;9.30;;;2.17;;
69789;SDS011;57064;52.046;4.800;2024-02-04T13:54:03;9.65;;;1.52;;
69789;SDS011;57064;52.046;4.800;2024-02-04T13:56:32;13.02;;;1.90;;
69789;SDS011;57064;52.046;4.800;2024-02-04T13:58:58;9.77;;;2.15;;
69789;SDS011;57064;52.046;4.800;2024-02-04T14:01:24;8.82;;;2.05;;
69789;SDS011;57064;52.046;4.800;2024-02-04T14:03:50;7.47;;;1.90;;
69789;SDS011;57064;52.046;4.800;2024-02-04T14:06:16;10.02;;;1.67;;
69789;SDS011;57064;52.046;4.800;2024-02-04T14:08:43;8.40;;;2.55;;
69789;SDS011;57064;52.046;4.800;2024-02-04T14:11:09;10.25;;;2.22;;
69789;SDS011;57064;52.046;4.800;2024-02-04T14:13:35;6.25;;;1.52;;
69789;SDS011;57064;52.046;4.800;2024-02-04T14:16:01;8.75;;;1.88;;
69789;SDS011;57064;52.046;4.800;2024-02-04T14:18:28;13.63;;;2.03;;
69789;SDS011;57064;52.046;4.800;2024-02-04T14:20:54;7.13;;;2.10;;
69789;SDS011;57064;52.046;4.800;2024-02-04T14:23:20;9.40;;;1.88;;
69789;SDS011;57064;52.046;4.800;2024-02-04T14:25:46;13.93;;;3.00;;
69789;SDS011;57064;52.046;4.800;2024-02-04T14:28:12;8.05;;;2.25;;
69789;SDS011;57064;52.046;4.800;2024-02-04T14:30:38;9.88;;;2.17;;
69789;SDS011;57064;52.046;4.800;2024-02-04T14:33:04;10.95;;;1.42;;
69789;SDS011;57064;52.046;4.800;2024-02-04T14:35:30;6.65;;;1.75;;
69789;SDS011;57064;52.046;4.800;2024-02-04T14:40:28;8.45;;;2.70;;
69789;SDS011;57064;52.046;4.800;2024-02-04T14:42:54;10.80;;;2.75;;
69789;SDS011;57064;52.046;4.800;2024-02-04T14:45:21;12.13;;;1.85;;
69789;SDS011;57064;52.046;4.800;2024-02-04T14:47:48;6.72;;;1.55;;
69789;SDS011;57064;52.046;4.800;2024-02-04T14:50:14;16.38;;;2.42;;